sensor_id;sensor_type;location;lat;lon;timestamp;P1;durP1;ratioP1;P2;durP2;ratioP2
75423;SDS011;64005;55.160;36.002;2022-12-18T00:01:28;10.23;;;3.20;;
75423;SDS011;64005;55.160;36.002;2022-12-18T00:03:58;7.38;;;3.22;;
75423;SDS011;64005;55.160;36.002;2022-12-18T00:06:27;9.57;;;3.58;;
75423;SDS011;64005;55.160;36.002;2022-12-18T00:09:03;10.88;;;3.60;;
75423;SDS011;64005;55.160;36.002;2022-12-18T00:11:29;8.13;;;3.90;;
75423;SDS011;64005;55.160;36.002;2022-12-18T00:13:56;10.60;;;4.68;;
75423;SDS011;64005;55.160;36.002;2022-12-18T00:16:25;6.93;;;3.33;;
75423;SDS011;64005;55.160;36.002;2022-12-18T00:18:52;5.97;;;2.80;;
75423;SDS011;64005;55.160;36.002;2022-12-18T00:21:20;7.38;;;3.28;;
75423;SDS011;64005;55.160;36.002;2022-12-18T00:23:47;6.65;;;2.10;;
75423;SDS011;64005;55.160;36.002;2022-12-18T00:26:15;11.02;;;3.60;;
75423;SDS011;64005;55.160;36.002;2022-12-18T00:28:44;10.73;;;3.20;;
75423;SDS011;64005;55.160;36.002;2022-12-18T00:31:11;7.72;;;3.50;;
75423;SDS011;64005;55.160;36.002;2022-12-18T00:33:39;11.00;;;4.05;;
75423;SDS011;64005;55.160;36.002;2022-12-18T00:36:06;5.28;;;2.75;;
75423;SDS011;64005;55.160;36.002;2022-12-18T00:38:36;11.80;;;4.72;;
75423;SDS011;64005;55.160;36.002;2022-12-18T00:41:02;9.10;;;3.53;;
75423;SDS011;64005;55.160;36.002;2022-12-18T00:43:28;6.32;;;3.00;;
75423;SDS011;64005;55.160;36.002;2022-12-18T00:45:54;7.82;;;2.78;;
75423;SDS011;64005;55.160;36.002;2022-12-18T00:48:20;7.43;;;2.47;;
75423;SDS011;64005;55.160;36.002;2022-12-18T00:50:49;12.65;;;4.13;;
75423;SDS011;64005;55.160;36.002;2022-12-18T00:53:15;10.95;;;4.47;;
75423;SDS011;64005;55.160;36.002;2022-12-18T00:55:41;6.32;;;2.90;;
75423;SDS011;64005;55.160;36.002;2022-12-18T00:58:08;5.38;;;2.47;;
75423;SDS011;64005;55.160;36.002;2022-12-18T01:00:36;16.25;;;4.22;;
75423;SDS011;64005;55.160;36.002;2022-12-18T01:03:03;9.27;;;4.03;;
75423;SDS011;64005;55.160;36.002;2022-12-18T01:05:30;6.20;;;2.78;;
75423;SDS011;64005;55.160;36.002;2022-12-18T01:07:56;6.25;;;1.92;;
75423;SDS011;64005;55.160;36.002;2022-12-18T01:10:22;13.38;;;4.43;;
75423;SDS011;64005;55.160;36.002;2022-12-18T01:12:48;10.48;;;4.18;;
75423;SDS011;64005;55.160;36.002;2022-12-18T01:15:14;7.70;;;3.33;;
75423;SDS011;64005;55.160;36.002;2022-12-18T01:17:41;10.27;;;3.28;;
75423;SDS011;64005;55.160;36.002;2022-12-18T01:20:09;9.20;;;3.90;;
75423;SDS011;64005;55.160;36.002;2022-12-18T01:22:36;6.00;;;1.70;;
75423;SDS011;64005;55.160;36.002;2022-12-18T01:25:03;11.65;;;3.47;;
75423;SDS011;64005;55.160;36.002;2022-12-18T01:27:31;9.60;;;4.18;;
75423;SDS011;64005;55.160;36.002;2022-12-18T01:29:58;9.10;;;2.45;;
75423;SDS011;64005;55.160;36.002;2022-12-18T01:32:24;8.60;;;2.88;;
75423;SDS011;64005;55.160;36.002;2022-12-18T01:34:50;12.25;;;3.45;;
75423;SDS011;64005;55.160;36.002;2022-12-18T01:37:15;9.60;;;3.45;;
75423;SDS011;64005;55.160;36.002;2022-12-18T01:39:41;10.02;;;4.18;;
75423;SDS011;64005;55.160;36.002;2022-12-18T01:42:11;4.32;;;1.65;;
75423;SDS011;64005;55.160;36.002;2022-12-18T01:44:55;10.30;;;3.53;;
75423;SDS011;64005;55.160;36.002;2022-12-18T01:48:12;7.65;;;3.55;;
75423;SDS011;64005;55.160;36.002;2022-12-18T01:50:42;6.93;;;3.00;;
75423;SDS011;64005;55.160;36.002;2022-12-18T01:53:17;6.15;;;2.63;;
75423;SDS011;64005;55.160;36.002;2022-12-18T01:55:55;12.10;;;3.17;;
75423;SDS011;64005;55.160;36.002;2022-12-18T01:58:28;6.88;;;2.25;;
75423;SDS011;64005;55.160;36.002;2022-12-18T02:01:02;8.02;;;2.65;;
75423;SDS011;64005;55.160;36.002;2022-12-18T02:03:27;6.70;;;2.63;;
75423;SDS011;64005;55.160;36.002;2022-12-18T02:06:01;6.53;;;2.55;;
75423;SDS011;64005;55.160;36.002;2022-12-18T02:11:40;5.63;;;2.10;;
75423;SDS011;64005;55.160;36.002;2022-12-18T02:22:27;7.22;;;2.45;;
75423;SDS011;64005;55.160;36.002;2022-12-18T02:25:12;8.90;;;2.28;;
75423;SDS011;64005;55.160;36.002;2022-12-18T02:27:50;3.15;;;1.75;;
75423;SDS011;64005;55.160;36.002;2022-12-18T02:30:16;2.13;;;0.95;;
75423;SDS011;64005;55.160;36.002;2022-12-18T02:32:46;2.83;;;1.00;;
75423;SDS011;64005;55.160;36.002;2022-12-18T02:35:17;3.17;;;1.67;;
75423;SDS011;64005;55.160;36.002;2022-12-18T02:37:47;7.95;;;2.50;;
75423;SDS011;64005;55.160;36.002;2022-12-18T02:40:14;4.15;;;1.77;;
75423;SDS011;64005;55.160;36.002;2022-12-18T02:42:42;6.78;;;3.15;;
75423;SDS011;64005;55.160;36.002;2022-12-18T02:45:08;5.90;;;2.03;;
75423;SDS011;64005;55.160;36.002;2022-12-18T02:47:36;5.35;;;2.13;;
75423;SDS011;64005;55.160;36.002;2022-12-18T03:06:13;3.88;;;2.05;;
75423;SDS011;64005;55.160;36.002;2022-12-18T03:08:49;2.80;;;1.38;;
75423;SDS011;64005;55.160;36.002;2022-12-18T03:11:19;5.80;;;1.80;;
75423;SDS011;64005;55.160;36.002;2022-12-18T03:14:05;4.70;;;1.48;;
75423;SDS011;64005;55.160;36.002;2022-12-18T03:16:33;6.85;;;1.60;;
75423;SDS011;64005;55.160;36.002;2022-12-18T03:19:01;6.20;;;1.50;;
75423;SDS011;64005;55.160;36.002;2022-12-18T03:21:33;7.72;;;2.13;;
75423;SDS011;64005;55.160;36.002;2022-12-18T03:24:05;3.83;;;1.42;;
75423;SDS011;64005;55.160;36.002;2022-12-18T03:26:33;6.47;;;1.42;;
75423;SDS011;64005;55.160;36.002;2022-12-18T03:29:04;5.07;;;2.17;;
75423;SDS011;64005;55.160;36.002;2022-12-18T03:31:35;3.00;;;1.55;;
75423;SDS011;64005;55.160;36.002;2022-12-18T03:34:06;3.97;;;1.45;;
75423;SDS011;64005;55.160;36.002;2022-12-18T03:36:38;4.88;;;1.98;;
75423;SDS011;64005;55.160;36.002;2022-12-18T03:39:04;3.53;;;1.40;;
75423;SDS011;64005;55.160;36.002;2022-12-18T03:41:52;1.55;;;1.08;;
75423;SDS011;64005;55.160;36.002;2022-12-18T03:44:36;4.60;;;1.33;;
75423;SDS011;64005;55.160;36.002;2022-12-18T03:47:26;4.13;;;1.67;;
75423;SDS011;64005;55.160;36.002;2022-12-18T03:55:22;3.17;;;1.02;;
75423;SDS011;64005;55.160;36.002;2022-12-18T03:57:53;4.57;;;1.55;;
75423;SDS011;64005;55.160;36.002;2022-12-18T04:00:20;3.25;;;1.00;;
75423;SDS011;64005;55.160;36.002;2022-12-18T04:02:50;3.45;;;1.38;;
75423;SDS011;64005;55.160;36.002;2022-12-18T04:05:19;3.03;;;1.23;;
75423;SDS011;64005;55.160;36.002;2022-12-18T04:07:48;2.70;;;1.38;;
75423;SDS011;64005;55.160;36.002;2022-12-18T04:10:16;1.27;;;0.88;;
75423;SDS011;64005;55.160;36.002;2022-12-18T04:12:42;1.90;;;0.60;;
75423;SDS011;64005;55.160;36.002;2022-12-18T04:15:09;1.88;;;0.57;;
75423;SDS011;64005;55.160;36.002;2022-12-18T04:17:35;2.78;;;1.38;;
75423;SDS011;64005;55.160;36.002;2022-12-18T04:20:02;1.85;;;0.57;;
75423;SDS011;64005;55.160;36.002;2022-12-18T04:22:28;3.15;;;0.82;;
75423;SDS011;64005;55.160;36.002;2022-12-18T04:24:54;2.15;;;0.57;;
75423;SDS011;64005;55.160;36.002;2022-12-18T04:27:20;3.97;;;1.10;;
75423;SDS011;64005;55.160;36.002;2022-12-18T04:29:46;4.32;;;1.10;;
75423;SDS011;64005;55.160;36.002;2022-12-18T04:32:12;3.58;;;1.75;;
75423;SDS011;64005;55.160;36.002;2022-12-18T04:34:38;4.38;;;1.08;;
75423;SDS011;64005;55.160;36.002;2022-12-18T04:37:03;3.35;;;1.30;;
75423;SDS011;64005;55.160;36.002;2022-12-18T04:39:29;4.03;;;1.58;;
75423;SDS011;64005;55.160;36.002;2022-12-18T04:41:55;4.88;;;2.00;;
75423;SDS011;64005;55.160;36.002;2022-12-18T04:44:21;4.57;;;1.70;;
75423;SDS011;64005;55.160;36.002;2022-12-18T04:46:46;1.23;;;0.68;;
75423;SDS011;64005;55.160;36.002;2022-12-18T04:49:12;3.67;;;1.40;;
75423;SDS011;64005;55.160;36.002;2022-12-18T04:51:38;1.10;;;0.70;;
75423;SDS011;64005;55.160;36.002;2022-12-18T04:54:04;1.55;;;0.73;;
75423;SDS011;64005;55.160;36.002;2022-12-18T04:56:30;1.15;;;0.68;;
75423;SDS011;64005;55.160;36.002;2022-12-18T04:58:57;4.70;;;1.30;;
75423;SDS011;64005;55.160;36.002;2022-12-18T05:01:23;2.85;;;1.20;;
75423;SDS011;64005;55.160;36.002;2022-12-18T05:03:48;4.18;;;0.65;;
75423;SDS011;64005;55.160;36.002;2022-12-18T05:06:17;4.18;;;1.52;;
75423;SDS011;64005;55.160;36.002;2022-12-18T05:08:43;3.55;;;0.77;;
75423;SDS011;64005;55.160;36.002;2022-12-18T05:11:09;2.30;;;0.98;;
75423;SDS011;64005;55.160;36.002;2022-12-18T05:13:39;0.93;;;0.50;;
75423;SDS011;64005;55.160;36.002;2022-12-18T05:16:05;1.25;;;0.70;;
75423;SDS011;64005;55.160;36.002;2022-12-18T05:18:31;3.38;;;0.60;;
75423;SDS011;64005;55.160;36.002;2022-12-18T05:20:57;2.35;;;0.95;;
75423;SDS011;64005;55.160;36.002;2022-12-18T05:23:23;1.98;;;1.10;;
75423;SDS011;64005;55.160;36.002;2022-12-18T05:25:54;3.50;;;2.17;;
75423;SDS011;64005;55.160;36.002;2022-12-18T05:28:22;1.33;;;0.75;;
75423;SDS011;64005;55.160;36.002;2022-12-18T05:30:49;1.75;;;0.80;;
75423;SDS011;64005;55.160;36.002;2022-12-18T05:33:20;1.85;;;0.90;;
75423;SDS011;64005;55.160;36.002;2022-12-18T05:35:51;2.30;;;1.25;;
75423;SDS011;64005;55.160;36.002;2022-12-18T05:38:19;4.78;;;2.00;;
75423;SDS011;64005;55.160;36.002;2022-12-18T05:40:45;2.55;;;0.85;;
75423;SDS011;64005;55.160;36.002;2022-12-18T05:43:13;2.08;;;0.73;;
75423;SDS011;64005;55.160;36.002;2022-12-18T05:45:39;2.00;;;1.05;;
75423;SDS011;64005;55.160;36.002;2022-12-18T05:48:06;3.90;;;2.05;;
75423;SDS011;64005;55.160;36.002;2022-12-18T05:50:36;1.60;;;0.73;;
75423;SDS011;64005;55.160;36.002;2022-12-18T05:53:04;3.10;;;1.27;;
75423;SDS011;64005;55.160;36.002;2022-12-18T05:55:36;2.80;;;1.08;;
75423;SDS011;64005;55.160;36.002;2022-12-18T05:58:03;1.55;;;0.60;;
75423;SDS011;64005;55.160;36.002;2022-12-18T06:00:31;3.50;;;0.95;;
75423;SDS011;64005;55.160;36.002;2022-12-18T06:02:58;3.65;;;1.38;;
75423;SDS011;64005;55.160;36.002;2022-12-18T06:05:24;2.58;;;0.80;;
75423;SDS011;64005;55.160;36.002;2022-12-18T06:07:51;4.35;;;1.42;;
75423;SDS011;64005;55.160;36.002;2022-12-18T06:10:17;1.67;;;0.88;;
75423;SDS011;64005;55.160;36.002;2022-12-18T06:12:42;6.03;;;1.60;;
75423;SDS011;64005;55.160;36.002;2022-12-18T06:15:08;4.88;;;1.75;;
75423;SDS011;64005;55.160;36.002;2022-12-18T06:17:35;2.97;;;1.17;;
75423;SDS011;64005;55.160;36.002;2022-12-18T06:20:00;3.53;;;1.13;;
75423;SDS011;64005;55.160;36.002;2022-12-18T06:22:30;6.00;;;1.80;;
75423;SDS011;64005;55.160;36.002;2022-12-18T06:24:57;2.55;;;1.33;;
75423;SDS011;64005;55.160;36.002;2022-12-18T06:27:22;3.15;;;1.25;;
75423;SDS011;64005;55.160;36.002;2022-12-18T06:29:48;4.40;;;1.77;;
75423;SDS011;64005;55.160;36.002;2022-12-18T06:32:14;2.53;;;1.10;;
75423;SDS011;64005;55.160;36.002;2022-12-18T06:34:40;3.13;;;1.25;;
75423;SDS011;64005;55.160;36.002;2022-12-18T06:37:06;4.57;;;1.48;;
75423;SDS011;64005;55.160;36.002;2022-12-18T06:39:31;4.85;;;2.03;;
75423;SDS011;64005;55.160;36.002;2022-12-18T06:41:57;8.50;;;2.53;;
75423;SDS011;64005;55.160;36.002;2022-12-18T06:44:23;4.25;;;1.45;;
75423;SDS011;64005;55.160;36.002;2022-12-18T06:46:49;4.72;;;2.38;;
75423;SDS011;64005;55.160;36.002;2022-12-18T06:49:14;4.55;;;1.58;;
75423;SDS011;64005;55.160;36.002;2022-12-18T06:51:41;2.42;;;0.90;;
75423;SDS011;64005;55.160;36.002;2022-12-18T06:54:07;3.03;;;1.25;;
75423;SDS011;64005;55.160;36.002;2022-12-18T06:56:33;3.30;;;1.63;;
75423;SDS011;64005;55.160;36.002;2022-12-18T06:58:59;5.50;;;1.98;;
75423;SDS011;64005;55.160;36.002;2022-12-18T07:01:25;4.05;;;1.30;;
75423;SDS011;64005;55.160;36.002;2022-12-18T07:03:52;3.33;;;0.95;;
75423;SDS011;64005;55.160;36.002;2022-12-18T07:06:20;3.80;;;2.03;;
75423;SDS011;64005;55.160;36.002;2022-12-18T07:08:48;3.45;;;1.35;;
75423;SDS011;64005;55.160;36.002;2022-12-18T07:11:15;10.45;;;2.78;;
75423;SDS011;64005;55.160;36.002;2022-12-18T07:13:42;1.92;;;0.75;;
75423;SDS011;64005;55.160;36.002;2022-12-18T07:16:10;7.15;;;2.67;;
75423;SDS011;64005;55.160;36.002;2022-12-18T07:18:37;4.40;;;2.05;;
75423;SDS011;64005;55.160;36.002;2022-12-18T07:21:07;12.40;;;2.40;;
75423;SDS011;64005;55.160;36.002;2022-12-18T07:23:34;4.95;;;1.20;;
75423;SDS011;64005;55.160;36.002;2022-12-18T07:26:04;3.67;;;2.03;;
75423;SDS011;64005;55.160;36.002;2022-12-18T07:28:32;3.42;;;1.38;;
75423;SDS011;64005;55.160;36.002;2022-12-18T07:31:02;1.75;;;1.02;;
75423;SDS011;64005;55.160;36.002;2022-12-18T07:33:29;4.78;;;1.55;;
75423;SDS011;64005;55.160;36.002;2022-12-18T07:35:54;2.90;;;1.27;;
75423;SDS011;64005;55.160;36.002;2022-12-18T07:38:20;7.07;;;1.77;;
75423;SDS011;64005;55.160;36.002;2022-12-18T07:40:46;4.15;;;1.30;;
75423;SDS011;64005;55.160;36.002;2022-12-18T07:43:12;3.75;;;0.70;;
75423;SDS011;64005;55.160;36.002;2022-12-18T07:45:38;2.50;;;0.85;;
75423;SDS011;64005;55.160;36.002;2022-12-18T07:48:04;9.95;;;2.33;;
75423;SDS011;64005;55.160;36.002;2022-12-18T07:50:30;6.55;;;1.98;;
75423;SDS011;64005;55.160;36.002;2022-12-18T07:52:56;2.65;;;1.13;;
75423;SDS011;64005;55.160;36.002;2022-12-18T07:55:21;5.78;;;1.73;;
75423;SDS011;64005;55.160;36.002;2022-12-18T07:57:47;2.38;;;1.00;;
75423;SDS011;64005;55.160;36.002;2022-12-18T08:00:13;5.70;;;2.08;;
75423;SDS011;64005;55.160;36.002;2022-12-18T08:02:39;5.47;;;2.05;;
75423;SDS011;64005;55.160;36.002;2022-12-18T08:05:05;4.85;;;1.90;;
75423;SDS011;64005;55.160;36.002;2022-12-18T08:07:31;2.95;;;1.33;;
75423;SDS011;64005;55.160;36.002;2022-12-18T08:09:57;5.57;;;1.90;;
75423;SDS011;64005;55.160;36.002;2022-12-18T08:12:23;2.42;;;1.52;;
75423;SDS011;64005;55.160;36.002;2022-12-18T08:14:48;1.77;;;0.63;;
75423;SDS011;64005;55.160;36.002;2022-12-18T08:17:14;4.10;;;1.88;;
75423;SDS011;64005;55.160;36.002;2022-12-18T08:19:40;6.85;;;1.85;;
75423;SDS011;64005;55.160;36.002;2022-12-18T08:22:07;4.53;;;2.28;;
75423;SDS011;64005;55.160;36.002;2022-12-18T08:24:33;4.07;;;1.75;;
75423;SDS011;64005;55.160;36.002;2022-12-18T08:26:59;5.97;;;1.95;;
75423;SDS011;64005;55.160;36.002;2022-12-18T08:29:24;5.93;;;2.05;;
75423;SDS011;64005;55.160;36.002;2022-12-18T08:31:50;5.50;;;1.33;;
75423;SDS011;64005;55.160;36.002;2022-12-18T08:34:16;4.07;;;1.65;;
75423;SDS011;64005;55.160;36.002;2022-12-18T08:36:42;6.18;;;2.00;;
75423;SDS011;64005;55.160;36.002;2022-12-18T08:39:07;6.47;;;1.75;;
75423;SDS011;64005;55.160;36.002;2022-12-18T08:41:33;7.78;;;1.65;;
75423;SDS011;64005;55.160;36.002;2022-12-18T08:43:59;3.25;;;1.38;;
75423;SDS011;64005;55.160;36.002;2022-12-18T08:46:43;2.75;;;1.15;;
75423;SDS011;64005;55.160;36.002;2022-12-18T08:49:11;12.48;;;1.17;;
75423;SDS011;64005;55.160;36.002;2022-12-18T08:51:37;7.70;;;2.58;;
75423;SDS011;64005;55.160;36.002;2022-12-18T08:54:04;8.30;;;2.63;;
75423;SDS011;64005;55.160;36.002;2022-12-18T08:56:31;9.15;;;2.78;;
75423;SDS011;64005;55.160;36.002;2022-12-18T08:58:57;3.38;;;1.48;;
75423;SDS011;64005;55.160;36.002;2022-12-18T09:01:23;3.33;;;0.98;;
75423;SDS011;64005;55.160;36.002;2022-12-18T09:03:49;2.95;;;1.40;;
75423;SDS011;64005;55.160;36.002;2022-12-18T09:06:17;5.15;;;1.35;;
75423;SDS011;64005;55.160;36.002;2022-12-18T09:08:44;4.60;;;1.90;;
75423;SDS011;64005;55.160;36.002;2022-12-18T09:11:15;2.40;;;0.93;;
75423;SDS011;64005;55.160;36.002;2022-12-18T09:13:45;2.50;;;1.30;;
75423;SDS011;64005;55.160;36.002;2022-12-18T09:16:11;3.72;;;1.70;;
75423;SDS011;64005;55.160;36.002;2022-12-18T09:18:37;4.15;;;1.75;;
75423;SDS011;64005;55.160;36.002;2022-12-18T09:21:09;3.58;;;1.27;;
75423;SDS011;64005;55.160;36.002;2022-12-18T09:23:37;5.30;;;1.20;;
75423;SDS011;64005;55.160;36.002;2022-12-18T09:26:03;5.30;;;2.10;;
75423;SDS011;64005;55.160;36.002;2022-12-18T09:28:29;4.45;;;1.75;;
75423;SDS011;64005;55.160;36.002;2022-12-18T09:30:55;1.45;;;0.63;;
75423;SDS011;64005;55.160;36.002;2022-12-18T09:35:55;4.70;;;1.85;;
75423;SDS011;64005;55.160;36.002;2022-12-18T09:38:21;2.55;;;1.33;;
75423;SDS011;64005;55.160;36.002;2022-12-18T09:40:49;3.45;;;2.13;;
75423;SDS011;64005;55.160;36.002;2022-12-18T09:43:32;2.50;;;1.05;;
75423;SDS011;64005;55.160;36.002;2022-12-18T09:46:08;5.07;;;1.10;;
75423;SDS011;64005;55.160;36.002;2022-12-18T09:48:42;1.25;;;0.32;;
75423;SDS011;64005;55.160;36.002;2022-12-18T09:51:14;2.95;;;1.02;;
75423;SDS011;64005;55.160;36.002;2022-12-18T09:53:47;4.80;;;2.17;;
75423;SDS011;64005;55.160;36.002;2022-12-18T09:56:28;1.70;;;1.15;;
75423;SDS011;64005;55.160;36.002;2022-12-18T10:01:26;1.65;;;0.32;;
75423;SDS011;64005;55.160;36.002;2022-12-18T10:03:54;2.88;;;0.85;;
75423;SDS011;64005;55.160;36.002;2022-12-18T10:06:22;5.40;;;1.25;;
75423;SDS011;64005;55.160;36.002;2022-12-18T10:14:40;0.55;;;0.20;;
75423;SDS011;64005;55.160;36.002;2022-12-18T10:17:20;3.72;;;1.42;;
75423;SDS011;64005;55.160;36.002;2022-12-18T10:20:12;1.98;;;0.75;;
75423;SDS011;64005;55.160;36.002;2022-12-18T10:25:23;1.48;;;1.13;;
75423;SDS011;64005;55.160;36.002;2022-12-18T10:27:53;2.17;;;1.10;;
75423;SDS011;64005;55.160;36.002;2022-12-18T10:30:23;2.97;;;0.63;;
75423;SDS011;64005;55.160;36.002;2022-12-18T10:32:50;1.30;;;0.57;;
75423;SDS011;64005;55.160;36.002;2022-12-18T10:35:21;1.95;;;0.60;;
75423;SDS011;64005;55.160;36.002;2022-12-18T10:41:00;1.80;;;1.23;;
75423;SDS011;64005;55.160;36.002;2022-12-18T10:43:31;1.80;;;1.13;;
75423;SDS011;64005;55.160;36.002;2022-12-18T10:46:11;1.80;;;0.50;;
75423;SDS011;64005;55.160;36.002;2022-12-18T10:51:25;4.00;;;1.23;;
75423;SDS011;64005;55.160;36.002;2022-12-18T10:53:56;2.92;;;0.55;;
75423;SDS011;64005;55.160;36.002;2022-12-18T10:56:26;1.58;;;0.70;;
75423;SDS011;64005;55.160;36.002;2022-12-18T10:59:01;0.85;;;0.38;;
75423;SDS011;64005;55.160;36.002;2022-12-18T11:01:48;5.80;;;1.65;;
75423;SDS011;64005;55.160;36.002;2022-12-18T11:07:01;5.43;;;2.30;;
75423;SDS011;64005;55.160;36.002;2022-12-18T11:09:32;1.40;;;0.73;;
75423;SDS011;64005;55.160;36.002;2022-12-18T11:12:00;7.72;;;1.45;;
75423;SDS011;64005;55.160;36.002;2022-12-18T11:14:42;1.55;;;0.73;;
75423;SDS011;64005;55.160;36.002;2022-12-18T11:17:20;2.75;;;1.98;;
75423;SDS011;64005;55.160;36.002;2022-12-18T11:19:58;5.53;;;1.35;;
75423;SDS011;64005;55.160;36.002;2022-12-18T11:24:59;1.33;;;0.47;;
75423;SDS011;64005;55.160;36.002;2022-12-18T11:27:29;1.88;;;1.23;;
75423;SDS011;64005;55.160;36.002;2022-12-18T11:32:56;3.25;;;0.50;;
75423;SDS011;64005;55.160;36.002;2022-12-18T11:40:50;3.95;;;0.65;;
75423;SDS011;64005;55.160;36.002;2022-12-18T11:43:28;5.03;;;2.28;;
75423;SDS011;64005;55.160;36.002;2022-12-18T11:46:10;9.00;;;2.83;;
75423;SDS011;64005;55.160;36.002;2022-12-18T11:49:44;2.70;;;1.52;;
75423;SDS011;64005;55.160;36.002;2022-12-18T11:54:45;1.30;;;0.43;;
75423;SDS011;64005;55.160;36.002;2022-12-18T12:13:02;4.10;;;1.67;;
75423;SDS011;64005;55.160;36.002;2022-12-18T12:21:32;2.00;;;0.82;;
75423;SDS011;64005;55.160;36.002;2022-12-18T12:26:17;6.30;;;1.33;;
75423;SDS011;64005;55.160;36.002;2022-12-18T12:32:05;1.63;;;0.20;;
75423;SDS011;64005;55.160;36.002;2022-12-18T12:39:37;3.47;;;1.38;;
75423;SDS011;64005;55.160;36.002;2022-12-18T12:42:05;5.22;;;1.60;;
75423;SDS011;64005;55.160;36.002;2022-12-18T12:45:05;3.88;;;1.08;;
75423;SDS011;64005;55.160;36.002;2022-12-18T12:47:39;1.55;;;0.70;;
75423;SDS011;64005;55.160;36.002;2022-12-18T12:50:13;0.00;;;0.00;;
75423;SDS011;64005;55.160;36.002;2022-12-18T12:52:49;0.98;;;0.50;;
75423;SDS011;64005;55.160;36.002;2022-12-18T12:55:20;0.73;;;0.60;;
75423;SDS011;64005;55.160;36.002;2022-12-18T13:01:16;1.60;;;1.15;;
75423;SDS011;64005;55.160;36.002;2022-12-18T13:03:55;1.45;;;0.45;;
75423;SDS011;64005;55.160;36.002;2022-12-18T13:06:30;2.30;;;0.57;;
75423;SDS011;64005;55.160;36.002;2022-12-18T13:09:06;2.05;;;0.75;;
75423;SDS011;64005;55.160;36.002;2022-12-18T13:11:36;2.60;;;1.00;;
75423;SDS011;64005;55.160;36.002;2022-12-18T13:14:24;2.53;;;1.20;;
75423;SDS011;64005;55.160;36.002;2022-12-18T13:16:55;0.35;;;0.25;;
75423;SDS011;64005;55.160;36.002;2022-12-18T13:22:23;2.00;;;0.65;;
75423;SDS011;64005;55.160;36.002;2022-12-18T13:24:54;0.10;;;0.05;;
75423;SDS011;64005;55.160;36.002;2022-12-18T13:40:57;1.55;;;0.40;;
75423;SDS011;64005;55.160;36.002;2022-12-18T13:43:48;7.78;;;0.55;;
75423;SDS011;64005;55.160;36.002;2022-12-18T13:46:19;0.68;;;0.30;;
75423;SDS011;64005;55.160;36.002;2022-12-18T13:48:57;2.03;;;0.93;;
75423;SDS011;64005;55.160;36.002;2022-12-18T13:51:24;0.68;;;0.40;;
75423;SDS011;64005;55.160;36.002;2022-12-18T13:53:52;0.00;;;0.00;;
75423;SDS011;64005;55.160;36.002;2022-12-18T13:56:25;0.00;;;0.00;;
75423;SDS011;64005;55.160;36.002;2022-12-18T13:59:11;2.38;;;1.13;;
75423;SDS011;64005;55.160;36.002;2022-12-18T14:01:48;0.10;;;0.00;;
75423;SDS011;64005;55.160;36.002;2022-12-18T14:04:20;1.58;;;0.80;;
75423;SDS011;64005;55.160;36.002;2022-12-18T14:07:07;1.15;;;0.25;;
75423;SDS011;64005;55.160;36.002;2022-12-18T14:09:44;0.80;;;0.47;;
75423;SDS011;64005;55.160;36.002;2022-12-18T14:12:26;3.58;;;0.40;;
75423;SDS011;64005;55.160;36.002;2022-12-18T14:17:55;0.05;;;0.00;;
75423;SDS011;64005;55.160;36.002;2022-12-18T14:20:24;1.17;;;1.10;;
75423;SDS011;64005;55.160;36.002;2022-12-18T14:22:52;1.45;;;0.30;;
75423;SDS011;64005;55.160;36.002;2022-12-18T14:25:23;5.32;;;2.22;;
75423;SDS011;64005;55.160;36.002;2022-12-18T14:30:40;1.30;;;0.55;;
75423;SDS011;64005;55.160;36.002;2022-12-18T14:33:14;2.22;;;1.15;;
75423;SDS011;64005;55.160;36.002;2022-12-18T14:38:31;2.28;;;0.45;;
75423;SDS011;64005;55.160;36.002;2022-12-18T14:41:05;7.53;;;1.27;;
75423;SDS011;64005;55.160;36.002;2022-12-18T14:43:36;2.50;;;0.28;;
75423;SDS011;64005;55.160;36.002;2022-12-18T14:46:04;0.38;;;0.15;;
75423;SDS011;64005;55.160;36.002;2022-12-18T14:51:15;1.60;;;0.52;;
75423;SDS011;64005;55.160;36.002;2022-12-18T14:53:44;5.57;;;0.85;;
75423;SDS011;64005;55.160;36.002;2022-12-18T14:58:53;0.70;;;0.40;;
75423;SDS011;64005;55.160;36.002;2022-12-18T15:01:30;1.45;;;0.90;;
75423;SDS011;64005;55.160;36.002;2022-12-18T15:04:00;1.60;;;0.68;;
75423;SDS011;64005;55.160;36.002;2022-12-18T15:08:57;1.40;;;0.45;;
75423;SDS011;64005;55.160;36.002;2022-12-18T15:11:25;4.47;;;0.90;;
75423;SDS011;64005;55.160;36.002;2022-12-18T15:14:24;2.95;;;1.08;;
75423;SDS011;64005;55.160;36.002;2022-12-18T15:17:01;1.20;;;1.10;;
75423;SDS011;64005;55.160;36.002;2022-12-18T15:19:34;3.50;;;1.15;;
75423;SDS011;64005;55.160;36.002;2022-12-18T15:22:03;1.20;;;0.30;;
75423;SDS011;64005;55.160;36.002;2022-12-18T15:24:30;2.40;;;1.05;;
75423;SDS011;64005;55.160;36.002;2022-12-18T15:26:58;1.92;;;1.55;;
75423;SDS011;64005;55.160;36.002;2022-12-18T15:29:24;2.28;;;1.25;;
75423;SDS011;64005;55.160;36.002;2022-12-18T15:34:27;2.13;;;0.60;;
75423;SDS011;64005;55.160;36.002;2022-12-18T15:36:54;2.38;;;1.38;;
75423;SDS011;64005;55.160;36.002;2022-12-18T15:39:20;0.52;;;0.32;;
75423;SDS011;64005;55.160;36.002;2022-12-18T15:41:46;6.07;;;2.30;;
75423;SDS011;64005;55.160;36.002;2022-12-18T15:44:30;0.35;;;0.10;;
75423;SDS011;64005;55.160;36.002;2022-12-18T15:46:57;2.55;;;0.85;;
75423;SDS011;64005;55.160;36.002;2022-12-18T15:49:23;2.45;;;1.58;;
75423;SDS011;64005;55.160;36.002;2022-12-18T15:51:51;1.48;;;1.00;;
75423;SDS011;64005;55.160;36.002;2022-12-18T15:54:19;1.65;;;0.75;;
75423;SDS011;64005;55.160;36.002;2022-12-18T15:57:08;3.10;;;0.95;;
75423;SDS011;64005;55.160;36.002;2022-12-18T15:59:53;2.15;;;0.80;;
75423;SDS011;64005;55.160;36.002;2022-12-18T16:02:21;1.20;;;0.57;;
75423;SDS011;64005;55.160;36.002;2022-12-18T16:04:48;2.17;;;0.90;;
75423;SDS011;64005;55.160;36.002;2022-12-18T16:07:14;0.85;;;0.47;;
75423;SDS011;64005;55.160;36.002;2022-12-18T16:09:40;2.10;;;1.05;;
75423;SDS011;64005;55.160;36.002;2022-12-18T16:12:10;3.00;;;1.13;;
75423;SDS011;64005;55.160;36.002;2022-12-18T16:14:41;6.82;;;1.15;;
75423;SDS011;64005;55.160;36.002;2022-12-18T16:17:09;2.60;;;0.90;;
75423;SDS011;64005;55.160;36.002;2022-12-18T16:19:36;1.70;;;0.75;;
75423;SDS011;64005;55.160;36.002;2022-12-18T16:22:04;2.97;;;0.80;;
75423;SDS011;64005;55.160;36.002;2022-12-18T16:24:31;0.98;;;0.28;;
75423;SDS011;64005;55.160;36.002;2022-12-18T16:26:58;1.17;;;0.70;;
75423;SDS011;64005;55.160;36.002;2022-12-18T16:29:25;2.53;;;0.93;;
75423;SDS011;64005;55.160;36.002;2022-12-18T16:31:53;2.08;;;0.47;;
75423;SDS011;64005;55.160;36.002;2022-12-18T16:34:23;1.02;;;0.38;;
75423;SDS011;64005;55.160;36.002;2022-12-18T16:37:00;1.38;;;0.40;;
75423;SDS011;64005;55.160;36.002;2022-12-18T16:39:27;2.03;;;0.75;;
75423;SDS011;64005;55.160;36.002;2022-12-18T16:41:55;8.35;;;1.55;;
75423;SDS011;64005;55.160;36.002;2022-12-18T16:44:21;1.10;;;0.50;;
75423;SDS011;64005;55.160;36.002;2022-12-18T16:46:47;0.57;;;0.15;;
75423;SDS011;64005;55.160;36.002;2022-12-18T16:49:15;1.90;;;0.40;;
75423;SDS011;64005;55.160;36.002;2022-12-18T16:51:42;2.75;;;0.73;;
75423;SDS011;64005;55.160;36.002;2022-12-18T16:54:09;1.52;;;0.47;;
75423;SDS011;64005;55.160;36.002;2022-12-18T16:56:35;2.05;;;1.00;;
75423;SDS011;64005;55.160;36.002;2022-12-18T16:59:01;1.88;;;0.55;;
75423;SDS011;64005;55.160;36.002;2022-12-18T17:01:28;2.42;;;0.90;;
75423;SDS011;64005;55.160;36.002;2022-12-18T17:03:56;1.75;;;0.85;;
75423;SDS011;64005;55.160;36.002;2022-12-18T17:06:29;1.63;;;0.40;;
75423;SDS011;64005;55.160;36.002;2022-12-18T17:08:57;2.63;;;0.93;;